Time;durP1;ratioP1;P1;durP2;ratioP2;P2;SDS_P1;SDS_P2;PMS_P1;PMS_P2;Temp;Humidity;BMP_temperature;BMP_pressure;BME280_temperature;BME280_humidity;BME280_pressure;Samples;Min_cycle;Max_cycle;Signal;HPM_P1;HPM_P2
2022/03/07 00:01:30;;;;;;;2.10;2.00;;;;;;;;;;5075622;28;20208;-81
2022/03/07 00:03:58;;;;;;;1.70;1.60;;;;;;;;;;5075239;28;20208;-82
2022/03/07 00:06:26;;;;;;;2.35;2.15;;;;;;;;;;5075776;28;20262;-82
2022/03/07 00:08:53;;;;;;;2.55;2.08;;;;;;;;;;5075286;28;20224;-81
2022/03/07 00:11:21;;;;;;;1.50;1.40;;;;;;;;;;5075277;28;20202;-82
2022/03/07 00:13:48;;;;;;;1.50;1.40;;;;;;;;;;5074682;28;20251;-81
2022/03/07 00:16:16;;;;;;;1.42;1.38;;;;;;;;;;5075288;28;20258;-82
2022/03/07 00:18:45;;;;;;;1.88;1.70;;;;;;;;;;5075019;28;20225;-81
2022/03/07 00:21:12;;;;;;;1.35;1.33;;;;;;;;;;5074841;28;20200;-81
2022/03/07 00:23:40;;;;;;;2.55;1.52;;;;;;;;;;5075206;28;20223;-80
2022/03/07 00:26:07;;;;;;;1.80;1.70;;;;;;;;;;5074601;28;20278;-80
2022/03/07 00:28:35;;;;;;;2.03;1.88;;;;;;;;;;5074324;28;20225;-79
2022/03/07 00:31:02;;;;;;;1.80;1.70;;;;;;;;;;5074238;28;20201;-79
2022/03/07 00:33:30;;;;;;;3.90;1.98;;;;;;;;;;5073687;28;20201;-79
2022/03/07 00:35:58;;;;;;;1.70;1.60;;;;;;;;;;5074284;28;20207;-78
2022/03/07 00:38:26;;;;;;;1.70;1.60;;;;;;;;;;5073836;28;20225;-79
2022/03/07 00:40:53;;;;;;;1.63;1.52;;;;;;;;;;5073262;28;20553;-79
2022/03/07 00:43:21;;;;;;;1.58;1.48;;;;;;;;;;5073424;28;20212;-79
2022/03/07 00:45:49;;;;;;;1.65;1.55;;;;;;;;;;5073371;28;20201;-79
2022/03/07 00:48:17;;;;;;;2.40;2.28;;;;;;;;;;5073841;28;20224;-79
2022/03/07 00:50:45;;;;;;;2.10;1.80;;;;;;;;;;5073997;28;20266;-79
2022/03/07 00:53:14;;;;;;;2.08;1.65;;;;;;;;;;5073755;28;20215;-79
2022/03/07 00:55:42;;;;;;;2.10;2.00;;;;;;;;;;5073792;28;20201;-79
2022/03/07 00:58:10;;;;;;;1.98;1.80;;;;;;;;;;5073261;28;20697;-79
2022/03/07 01:00:38;;;;;;;1.70;1.60;;;;;;;;;;5073341;28;20217;-78
2022/03/07 01:03:07;;;;;;;2.22;2.00;;;;;;;;;;5073476;28;20201;-79
2022/03/07 01:05:34;;;;;;;2.05;1.95;;;;;;;;;;5073413;28;20212;-79
2022/03/07 01:08:02;;;;;;;2.00;1.90;;;;;;;;;;5073461;28;20213;-79
2022/03/07 01:10:30;;;;;;;5.38;1.92;;;;;;;;;;5072841;28;20199;-79
2022/03/07 01:12:57;;;;;;;2.10;2.00;;;;;;;;;;5072892;28;20209;-78
2022/03/07 01:15:25;;;;;;;2.13;1.95;;;;;;;;;;5073113;28;20681;-79
2022/03/07 01:17:54;;;;;;;1.80;1.70;;;;;;;;;;5072986;28;20228;-79
2022/03/07 01:20:22;;;;;;;2.00;1.90;;;;;;;;;;5073348;28;20221;-77
2022/03/07 01:22:49;;;;;;;1.95;1.80;;;;;;;;;;5073111;28;20209;-78
2022/03/07 01:25:16;;;;;;;2.95;2.75;;;;;;;;;;5072633;28;20205;-79
2022/03/07 01:27:45;;;;;;;2.08;1.98;;;;;;;;;;5073015;28;20237;-79
2022/03/07 01:30:13;;;;;;;1.90;1.80;;;;;;;;;;5072707;28;20219;-79
2022/03/07 01:32:40;;;;;;;2.20;2.10;;;;;;;;;;5072874;28;20203;-78
2022/03/07 01:35:09;;;;;;;2.25;2.08;;;;;;;;;;5072405;28;20213;-78
2022/03/07 01:37:36;;;;;;;2.33;2.00;;;;;;;;;;5072805;28;20201;-78
2022/03/07 01:40:05;;;;;;;2.60;2.42;;;;;;;;;;5072258;28;20246;-79
2022/03/07 01:42:33;;;;;;;2.10;2.00;;;;;;;;;;5072056;28;20223;-79
2022/03/07 01:45:10;;;;;;;2.22;2.03;;;;;;;;;;5073000;28;20254;-78
2022/03/07 01:47:37;;;;;;;2.25;2.15;;;;;;;;;;5072702;28;20208;-79
2022/03/07 01:50:06;;;;;;;1.80;1.70;;;;;;;;;;5072366;28;20209;-79
2022/03/07 01:52:35;;;;;;;2.50;2.30;;;;;;;;;;5072707;28;20570;-79
2022/03/07 01:55:03;;;;;;;2.72;2.50;;;;;;;;;;5071554;28;20201;-79
2022/03/07 01:57:30;;;;;;;3.28;2.60;;;;;;;;;;5072371;28;20266;-79
2022/03/07 01:59:58;;;;;;;2.60;2.40;;;;;;;;;;5072645;28;20235;-79
2022/03/07 02:02:26;;;;;;;2.20;2.10;;;;;;;;;;5072241;28;20197;-78
2022/03/07 02:04:54;;;;;;;2.65;2.40;;;;;;;;;;5071974;28;20204;-79
2022/03/07 02:07:22;;;;;;;2.88;2.50;;;;;;;;;;5072164;28;20196;-78
2022/03/07 02:09:49;;;;;;;2.65;2.45;;;;;;;;;;5072485;28;20219;-79
2022/03/07 02:12:16;;;;;;;1.98;1.88;;;;;;;;;;5072162;28;20204;-78
2022/03/07 02:14:44;;;;;;;3.00;2.80;;;;;;;;;;5072559;28;20282;-79
2022/03/07 02:17:11;;;;;;;2.65;2.45;;;;;;;;;;5072257;28;20254;-78
2022/03/07 02:19:40;;;;;;;2.70;2.50;;;;;;;;;;5071867;28;20232;-79
2022/03/07 02:22:10;;;;;;;2.50;2.30;;;;;;;;;;5073901;28;20211;-78
2022/03/07 02:24:38;;;;;;;2.60;2.40;;;;;;;;;;5076546;28;20211;-79
2022/03/07 02:27:08;;;;;;;3.45;3.08;;;;;;;;;;5076223;28;20208;-79
2022/03/07 02:29:36;;;;;;;2.38;2.22;;;;;;;;;;5076193;28;20649;-79
2022/03/07 02:32:05;;;;;;;2.63;2.33;;;;;;;;;;5076153;28;20676;-79
2022/03/07 02:34:32;;;;;;;3.70;2.40;;;;;;;;;;5076446;28;20200;-78
2022/03/07 02:37:00;;;;;;;2.55;2.35;;;;;;;;;;5076064;28;20211;-78
2022/03/07 02:39:28;;;;;;;3.00;2.50;;;;;;;;;;5076157;28;20224;-78
2022/03/07 02:41:56;;;;;;;2.13;2.03;;;;;;;;;;5075884;28;20842;-77
2022/03/07 02:44:23;;;;;;;2.90;2.70;;;;;;;;;;5075470;28;20204;-78
2022/03/07 02:46:51;;;;;;;3.30;3.05;;;;;;;;;;5075949;28;20208;-78
2022/03/07 02:49:18;;;;;;;2.83;2.63;;;;;;;;;;5075440;28;20220;-79
2022/03/07 02:51:45;;;;;;;2.85;2.65;;;;;;;;;;5075345;28;20208;-78
2022/03/07 02:54:13;;;;;;;3.45;2.50;;;;;;;;;;5075453;28;20204;-79
2022/03/07 02:56:41;;;;;;;2.50;2.30;;;;;;;;;;5075732;28;20197;-78
2022/03/07 02:59:09;;;;;;;2.85;2.65;;;;;;;;;;5075692;28;20636;-79
2022/03/07 03:01:36;;;;;;;3.08;2.72;;;;;;;;;;5075584;28;20246;-77
2022/03/07 03:04:03;;;;;;;2.22;2.05;;;;;;;;;;5075306;28;20204;-79
2022/03/07 03:06:31;;;;;;;3.17;2.80;;;;;;;;;;5074966;28;20244;-78
2022/03/07 03:08:58;;;;;;;2.80;2.60;;;;;;;;;;5075087;28;20228;-79
2022/03/07 03:11:26;;;;;;;2.33;2.22;;;;;;;;;;5075260;28;20204;-78
2022/03/07 03:13:54;;;;;;;2.70;2.50;;;;;;;;;;5075385;28;20208;-79
2022/03/07 03:16:22;;;;;;;2.22;2.13;;;;;;;;;;5075084;28;20212;-77
2022/03/07 03:18:49;;;;;;;2.80;2.60;;;;;;;;;;5074836;28;20220;-79
2022/03/07 03:21:17;;;;;;;2.58;2.38;;;;;;;;;;5074440;28;20228;-77
2022/03/07 03:23:46;;;;;;;2.75;2.55;;;;;;;;;;5075486;28;20205;-77
2022/03/07 03:26:13;;;;;;;2.95;2.70;;;;;;;;;;5075065;28;20211;-78
2022/03/07 03:28:40;;;;;;;2.83;2.58;;;;;;;;;;5074648;28;20233;-78
2022/03/07 03:31:11;;;;;;;2.80;2.60;;;;;;;;;;5075260;28;20212;-77
2022/03/07 03:33:38;;;;;;;2.28;2.08;;;;;;;;;;5074290;28;20205;-78
2022/03/07 03:36:06;;;;;;;2.20;2.00;;;;;;;;;;5074430;28;20231;-78
2022/03/07 03:38:34;;;;;;;2.63;2.28;;;;;;;;;;5074825;28;20221;-79
2022/03/07 03:41:01;;;;;;;2.35;2.15;;;;;;;;;;5074605;28;20225;-77
2022/03/07 03:43:28;;;;;;;2.55;2.35;;;;;;;;;;5073826;28;20205;-78
2022/03/07 03:45:55;;;;;;;3.15;2.60;;;;;;;;;;5074458;28;20201;-78
2022/03/07 03:48:24;;;;;;;2.30;2.20;;;;;;;;;;5073916;28;20224;-79
2022/03/07 03:50:51;;;;;;;2.42;2.25;;;;;;;;;;5074583;28;20205;-78
2022/03/07 03:53:19;;;;;;;3.80;2.53;;;;;;;;;;5073689;28;20201;-79
2022/03/07 03:55:46;;;;;;;2.45;2.25;;;;;;;;;;5074367;28;20201;-79
2022/03/07 03:58:13;;;;;;;1.60;1.50;;;;;;;;;;5073885;28;20233;-79
2022/03/07 04:00:40;;;;;;;1.95;1.85;;;;;;;;;;5073794;28;20228;-78
2022/03/07 04:03:08;;;;;;;4.93;2.30;;;;;;;;;;5073757;28;20201;-78
2022/03/07 04:05:36;;;;;;;2.60;2.00;;;;;;;;;;5073993;28;20209;-78
2022/03/07 04:08:05;;;;;;;1.75;1.65;;;;;;;;;;5073869;28;20217;-78
2022/03/07 04:10:32;;;;;;;2.08;1.90;;;;;;;;;;5077030;28;20204;-78
2022/03/07 04:13:00;;;;;;;1.92;1.83;;;;;;;;;;5076128;28;20201;-79
2022/03/07 04:15:27;;;;;;;2.55;2.17;;;;;;;;;;5075429;28;20204;-78
2022/03/07 04:17:55;;;;;;;2.85;2.53;;;;;;;;;;5073763;28;20646;-79
2022/03/07 04:20:22;;;;;;;2.47;2.28;;;;;;;;;;5074822;28;20271;-78
2022/03/07 04:22:52;;;;;;;2.47;1.90;;;;;;;;;;5073854;28;20208;-79
2022/03/07 04:25:20;;;;;;;2.42;2.30;;;;;;;;;;5074768;28;20209;-78
2022/03/07 04:27:47;;;;;;;2.30;2.20;;;;;;;;;;5073925;28;20314;-78
2022/03/07 04:30:14;;;;;;;2.65;2.28;;;;;;;;;;5074142;28;20213;-79
2022/03/07 04:32:42;;;;;;;2.50;2.30;;;;;;;;;;5073107;28;20266;-78
2022/03/07 04:35:11;;;;;;;2.80;2.47;;;;;;;;;;5075306;28;20204;-79
2022/03/07 04:37:40;;;;;;;2.40;2.15;;;;;;;;;;5074125;28;20201;-78
2022/03/07 04:40:11;;;;;;;2.80;2.60;;;;;;;;;;5073666;28;20204;-78
2022/03/07 04:42:39;;;;;;;2.50;2.30;;;;;;;;;;5073338;28;20661;-79
2022/03/07 04:45:08;;;;;;;2.47;2.28;;;;;;;;;;5072609;28;20227;-78
2022/03/07 04:47:35;;;;;;;3.10;2.90;;;;;;;;;;5073225;28;20218;-79
2022/03/07 04:50:03;;;;;;;2.45;2.25;;;;;;;;;;5073700;28;20205;-78
2022/03/07 04:52:30;;;;;;;2.97;2.60;;;;;;;;;;5073346;28;20201;-78
2022/03/07 04:54:57;;;;;;;3.45;2.92;;;;;;;;;;5073754;28;20205;-79
2022/03/07 04:57:26;;;;;;;2.53;2.33;;;;;;;;;;5073987;28;20623;-78
2022/03/07 04:59:53;;;;;;;2.60;2.40;;;;;;;;;;5073568;28;20570;-78
2022/03/07 05:02:20;;;;;;;2.78;2.58;;;;;;;;;;5073596;28;20216;-78
2022/03/07 05:04:48;;;;;;;3.33;3.08;;;;;;;;;;5074301;28;20208;-78
2022/03/07 05:07:15;;;;;;;3.42;3.13;;;;;;;;;;5073153;28;20208;-78
2022/03/07 05:09:44;;;;;;;3.60;3.30;;;;;;;;;;5077609;28;20290;-78
2022/03/07 05:12:12;;;;;;;3.00;2.80;;;;;;;;;;5077662;28;20205;-79
2022/03/07 05:14:41;;;;;;;3.10;2.90;;;;;;;;;;5077151;28;20235;-77
2022/03/07 05:17:08;;;;;;;3.50;3.08;;;;;;;;;;5075247;28;20201;-78
2022/03/07 05:19:36;;;;;;;3.33;3.13;;;;;;;;;;5073225;28;20243;-79
2022/03/07 05:22:04;;;;;;;2.85;2.65;;;;;;;;;;5073052;28;20740;-78
2022/03/07 05:24:31;;;;;;;2.60;2.40;;;;;;;;;;5073071;28;20267;-78
2022/03/07 05:26:58;;;;;;;2.90;2.70;;;;;;;;;;5073546;28;20208;-78
2022/03/07 05:29:26;;;;;;;2.90;2.60;;;;;;;;;;5073743;28;20236;-78
2022/03/07 05:31:54;;;;;;;2.85;2.65;;;;;;;;;;5072819;28;20258;-79
2022/03/07 05:34:22;;;;;;;3.75;3.13;;;;;;;;;;5073586;28;20598;-79
2022/03/07 05:36:49;;;;;;;2.60;2.42;;;;;;;;;;5073050;28;20204;-78
2022/03/07 05:39:16;;;;;;;2.67;2.47;;;;;;;;;;5072554;28;20595;-79
2022/03/07 05:41:44;;;;;;;3.53;2.42;;;;;;;;;;5073134;28;20234;-78
2022/03/07 05:44:11;;;;;;;2.70;2.50;;;;;;;;;;5073195;28;20208;-79
2022/03/07 05:46:38;;;;;;;2.47;2.28;;;;;;;;;;5072705;28;20196;-80
2022/03/07 05:49:07;;;;;;;2.60;2.40;;;;;;;;;;5074863;28;20228;-82
2022/03/07 05:51:34;;;;;;;1.88;1.77;;;;;;;;;;5077064;28;20200;-82
2022/03/07 05:54:01;;;;;;;2.03;1.90;;;;;;;;;;5075893;28;20197;-82
2022/03/07 05:56:29;;;;;;;2.40;2.20;;;;;;;;;;5074208;28;20197;-82
2022/03/07 05:58:56;;;;;;;3.55;2.55;;;;;;;;;;5073448;28;20225;-82
2022/03/07 06:01:23;;;;;;;1.90;1.80;;;;;;;;;;5074668;28;20232;-82
2022/03/07 06:03:51;;;;;;;2.30;2.00;;;;;;;;;;5075572;28;20216;-82
2022/03/07 06:06:19;;;;;;;2.20;2.00;;;;;;;;;;5074852;28;20201;-82
2022/03/07 06:08:47;;;;;;;2.38;2.17;;;;;;;;;;5072769;28;20232;-82
2022/03/07 06:11:14;;;;;;;2.85;2.38;;;;;;;;;;5074163;28;20220;-82
2022/03/07 06:13:41;;;;;;;3.15;2.83;;;;;;;;;;5073978;28;20207;-83
2022/03/07 06:16:09;;;;;;;3.85;2.70;;;;;;;;;;5074254;28;20231;-83
2022/03/07 06:18:37;;;;;;;3.03;2.72;;;;;;;;;;5074267;28;20274;-84
2022/03/07 06:21:05;;;;;;;2.20;2.00;;;;;;;;;;5068633;28;20587;-84
2022/03/07 06:23:34;;;;;;;2.53;2.30;;;;;;;;;;5067851;28;20250;-83
2022/03/07 06:26:01;;;;;;;2.60;2.40;;;;;;;;;;5068483;28;20193;-83
2022/03/07 06:28:28;;;;;;;3.38;3.08;;;;;;;;;;5073808;28;20237;-84
2022/03/07 06:30:56;;;;;;;2.67;2.47;;;;;;;;;;5072972;28;20205;-83
2022/03/07 06:33:23;;;;;;;2.60;2.40;;;;;;;;;;5073089;28;20201;-83
2022/03/07 06:35:50;;;;;;;2.00;1.90;;;;;;;;;;5073898;28;20201;-83
2022/03/07 06:38:19;;;;;;;1.80;1.70;;;;;;;;;;5067938;28;20221;-82
2022/03/07 06:40:48;;;;;;;1.63;1.52;;;;;;;;;;5073443;28;20216;-81
2022/03/07 06:43:16;;;;;;;2.78;2.58;;;;;;;;;;5073253;28;20282;-80
2022/03/07 06:45:43;;;;;;;2.58;2.13;;;;;;;;;;5073307;28;20591;-81
2022/03/07 06:48:10;;;;;;;2.45;2.25;;;;;;;;;;5074186;28;20729;-81
2022/03/07 06:50:38;;;;;;;2.50;2.30;;;;;;;;;;5073236;28;20205;-81
2022/03/07 06:53:05;;;;;;;2.38;2.17;;;;;;;;;;5073022;28;20205;-81
2022/03/07 06:55:32;;;;;;;2.13;1.92;;;;;;;;;;5066929;28;20201;-81
2022/03/07 06:58:01;;;;;;;1.90;1.80;;;;;;;;;;5067250;28;20229;-81
2022/03/07 07:00:29;;;;;;;2.13;1.98;;;;;;;;;;5069822;28;20205;-81
2022/03/07 07:02:56;;;;;;;3.15;2.05;;;;;;;;;;5073029;28;20225;-81
2022/03/07 07:05:23;;;;;;;1.80;1.70;;;;;;;;;;5087318;28;20205;-80
2022/03/07 07:07:51;;;;;;;1.67;1.58;;;;;;;;;;5084605;28;20231;-81
2022/03/07 07:10:19;;;;;;;2.17;1.98;;;;;;;;;;5087552;28;20208;-81
2022/03/07 07:12:48;;;;;;;2.15;2.05;;;;;;;;;;5087847;28;20201;-80
2022/03/07 07:15:17;;;;;;;3.35;3.13;;;;;;;;;;5087902;28;20227;-81
2022/03/07 07:17:44;;;;;;;3.47;3.17;;;;;;;;;;5094086;28;20228;-83
2022/03/07 07:20:13;;;;;;;2.92;2.70;;;;;;;;;;5094407;28;20299;-81
2022/03/07 07:22:41;;;;;;;2.47;2.28;;;;;;;;;;5085935;28;20566;-81
2022/03/07 07:25:10;;;;;;;2.45;2.28;;;;;;;;;;5080792;28;20197;-81
2022/03/07 07:27:38;;;;;;;2.00;1.90;;;;;;;;;;5080515;28;20204;-81
2022/03/07 07:30:08;;;;;;;2.22;1.92;;;;;;;;;;5080626;28;20216;-81
2022/03/07 07:32:39;;;;;;;1.80;1.70;;;;;;;;;;5078327;28;20251;-81
2022/03/07 07:35:08;;;;;;;1.77;1.67;;;;;;;;;;5078037;28;20306;-82
2022/03/07 07:37:35;;;;;;;1.63;1.52;;;;;;;;;;5079185;28;20216;-81
2022/03/07 07:40:03;;;;;;;1.70;1.60;;;;;;;;;;5077624;28;20235;-82
2022/03/07 07:42:31;;;;;;;1.38;1.27;;;;;;;;;;5077283;28;20259;-82
2022/03/07 07:44:58;;;;;;;2.05;1.80;;;;;;;;;;5079321;28;20205;-81
2022/03/07 07:47:25;;;;;;;2.20;2.05;;;;;;;;;;5094003;28;20235;-81
2022/03/07 07:49:54;;;;;;;1.95;1.85;;;;;;;;;;5094346;28;20205;-82
2022/03/07 07:52:21;;;;;;;2.95;2.08;;;;;;;;;;5095318;28;20185;-82
2022/03/07 07:54:48;;;;;;;3.08;2.58;;;;;;;;;;5094745;28;20201;-79
2022/03/07 07:57:16;;;;;;;2.13;2.03;;;;;;;;;;5095605;28;20205;-81
2022/03/07 07:59:43;;;;;;;2.58;2.38;;;;;;;;;;5080768;28;20308;-82
2022/03/07 08:02:10;;;;;;;2.97;2.38;;;;;;;;;;5076507;28;20612;-82
2022/03/07 08:04:38;;;;;;;2.45;2.25;;;;;;;;;;5076786;28;20197;-82
2022/03/07 08:07:06;;;;;;;2.50;2.40;;;;;;;;;;5077522;28;20209;-83
2022/03/07 08:09:35;;;;;;;3.30;2.50;;;;;;;;;;5079308;28;20316;-83
2022/03/07 08:12:02;;;;;;;2.97;2.65;;;;;;;;;;5078326;28;20213;-83
2022/03/07 08:14:30;;;;;;;2.22;2.10;;;;;;;;;;5075341;28;20657;-84
2022/03/07 08:16:57;;;;;;;2.78;2.58;;;;;;;;;;5076493;28;20205;-83
2022/03/07 08:19:24;;;;;;;1.88;1.77;;;;;;;;;;5077356;28;20229;-82
2022/03/07 08:21:52;;;;;;;8.95;2.78;;;;;;;;;;5076369;28;20236;-82
2022/03/07 08:24:21;;;;;;;1.80;1.70;;;;;;;;;;5076372;28;20248;-82
2022/03/07 08:26:48;;;;;;;3.47;2.40;;;;;;;;;;5074910;28;20219;-83
2022/03/07 08:29:15;;;;;;;2.80;2.60;;;;;;;;;;5074113;28;20233;-82
2022/03/07 08:31:43;;;;;;;2.47;2.13;;;;;;;;;;5074025;28;20633;-83
2022/03/07 08:34:10;;;;;;;2.15;2.05;;;;;;;;;;5074896;28;20193;-81
2022/03/07 08:36:37;;;;;;;2.20;2.10;;;;;;;;;;5075602;28;20197;-82
2022/03/07 08:39:05;;;;;;;2.80;1.90;;;;;;;;;;5074820;28;20221;-82
2022/03/07 08:41:35;;;;;;;2.75;2.28;;;;;;;;;;5074689;28;20201;-82
2022/03/07 08:44:02;;;;;;;2.13;1.95;;;;;;;;;;5075360;28;20221;-83
2022/03/07 08:46:29;;;;;;;2.88;2.58;;;;;;;;;;5075250;28;20201;-83
2022/03/07 08:48:57;;;;;;;2.85;2.65;;;;;;;;;;5075731;28;20622;-82
2022/03/07 08:51:24;;;;;;;2.28;2.15;;;;;;;;;;5075100;28;20208;-82
2022/03/07 08:53:51;;;;;;;2.90;2.70;;;;;;;;;;5074735;28;20609;-82
2022/03/07 08:56:19;;;;;;;2.40;2.20;;;;;;;;;;5074312;28;20208;-82
2022/03/07 08:58:47;;;;;;;2.72;2.53;;;;;;;;;;5075108;28;20228;-83
2022/03/07 09:01:16;;;;;;;3.67;2.63;;;;;;;;;;5075263;28;20204;-82
2022/03/07 09:03:43;;;;;;;2.53;2.05;;;;;;;;;;5074674;28;20225;-81
2022/03/07 09:06:11;;;;;;;2.25;2.05;;;;;;;;;;5074733;28;20730;-82
2022/03/07 09:08:38;;;;;;;2.17;2.08;;;;;;;;;;5074582;28;20225;-82
2022/03/07 09:11:05;;;;;;;2.67;2.08;;;;;;;;;;5074355;28;20456;-82
2022/03/07 09:13:33;;;;;;;2.03;1.83;;;;;;;;;;5074357;28;20292;-82
2022/03/07 09:16:02;;;;;;;2.08;1.88;;;;;;;;;;5075000;28;20652;-82
2022/03/07 09:18:30;;;;;;;2.42;2.28;;;;;;;;;;5073745;28;20723;-82
2022/03/07 09:20:57;;;;;;;2.70;2.50;;;;;;;;;;5075574;28;20205;-83
2022/03/07 09:23:27;;;;;;;2.47;2.28;;;;;;;;;;5074388;28;20232;-83
2022/03/07 09:25:54;;;;;;;3.60;2.30;;;;;;;;;;5075016;28;20284;-82
2022/03/07 09:28:21;;;;;;;1.52;1.45;;;;;;;;;;5074917;28;20705;-83
2022/03/07 09:30:49;;;;;;;2.10;2.00;;;;;;;;;;5074467;28;20208;-83
2022/03/07 09:33:18;;;;;;;1.80;1.70;;;;;;;;;;5075210;28;20221;-83
2022/03/07 09:35:45;;;;;;;2.30;2.10;;;;;;;;;;5075019;28;20205;-82
2022/03/07 09:38:12;;;;;;;2.45;2.25;;;;;;;;;;5074127;28;20223;-82
2022/03/07 09:40:39;;;;;;;1.83;1.73;;;;;;;;;;5074730;28;20573;-83
2022/03/07 09:43:08;;;;;;;2.22;2.13;;;;;;;;;;5074042;28;20245;-84
2022/03/07 09:45:36;;;;;;;2.22;2.08;;;;;;;;;;5085901;28;20226;-83
2022/03/07 09:48:03;;;;;;;2.13;2.03;;;;;;;;;;5085046;28;20217;-82
2022/03/07 09:50:32;;;;;;;1.83;1.73;;;;;;;;;;5081271;28;20641;-82
2022/03/07 09:52:59;;;;;;;1.58;1.48;;;;;;;;;;5073750;28;20205;-84
2022/03/07 09:55:27;;;;;;;1.95;1.85;;;;;;;;;;5074921;28;20228;-84
2022/03/07 09:57:54;;;;;;;1.80;1.70;;;;;;;;;;5074634;28;20700;-83
2022/03/07 10:00:21;;;;;;;2.22;1.92;;;;;;;;;;5074571;28;20630;-84
2022/03/07 10:02:57;;;;;;;1.77;1.67;;;;;;;;;;5074733;28;20205;-84
2022/03/07 10:05:28;;;;;;;2.17;2.08;;;;;;;;;;5075125;28;20200;-83
2022/03/07 10:07:57;;;;;;;2.10;1.90;;;;;;;;;;5074257;28;20229;-83
2022/03/07 10:10:30;;;;;;;1.98;1.88;;;;;;;;;;5073690;28;20594;-82
2022/03/07 10:12:57;;;;;;;1.80;1.67;;;;;;;;;;5072546;28;20288;-82
2022/03/07 10:15:25;;;;;;;2.05;1.90;;;;;;;;;;5073242;28;20221;-82
2022/03/07 10:17:54;;;;;;;1.80;1.70;;;;;;;;;;5072807;28;20228;-83
2022/03/07 10:20:24;;;;;;;1.90;1.65;;;;;;;;;;5073400;28;20204;-84
2022/03/07 10:22:53;;;;;;;1.85;1.67;;;;;;;;;;5072986;28;20197;-82
2022/03/07 10:25:25;;;;;;;1.67;1.58;;;;;;;;;;5073304;28;20201;-82
2022/03/07 10:27:54;;;;;;;2.60;1.50;;;;;;;;;;5072723;28;20236;-81
2022/03/07 10:30:24;;;;;;;1.50;1.40;;;;;;;;;;5073218;28;20209;-81
2022/03/07 10:32:57;;;;;;;1.77;1.67;;;;;;;;;;5072733;28;20201;-82
2022/03/07 10:35:27;;;;;;;1.88;1.63;;;;;;;;;;5072935;28;20223;-81
2022/03/07 10:38:00;;;;;;;1.67;1.58;;;;;;;;;;5073045;28;20231;-81
2022/03/07 10:40:31;;;;;;;1.85;1.75;;;;;;;;;;5073794;28;20661;-82
2022/03/07 10:43:00;;;;;;;2.30;2.10;;;;;;;;;;5074383;28;20201;-81
2022/03/07 10:45:29;;;;;;;5.05;1.80;;;;;;;;;;5076833;28;20193;-82
2022/03/07 10:47:58;;;;;;;1.67;1.58;;;;;;;;;;5076726;28;20224;-81
2022/03/07 10:50:28;;;;;;;1.70;1.60;;;;;;;;;;5076614;28;20636;-81
2022/03/07 10:53:01;;;;;;;1.80;1.70;;;;;;;;;;5076353;28;20224;-81
2022/03/07 10:55:31;;;;;;;2.47;2.00;;;;;;;;;;5077553;28;20645;-83
2022/03/07 10:58:08;;;;;;;1.63;1.52;;;;;;;;;;5076500;28;20239;-81
2022/03/07 11:00:46;;;;;;;1.88;1.75;;;;;;;;;;5077342;28;20216;-81
2022/03/07 11:03:17;;;;;;;1.85;1.40;;;;;;;;;;5076507;28;20204;-82
2022/03/07 11:05:45;;;;;;;1.80;1.52;;;;;;;;;;5076722;28;20229;-82
2022/03/07 11:08:15;;;;;;;1.83;1.73;;;;;;;;;;5077088;28;20275;-82
2022/03/07 11:10:47;;;;;;;1.33;1.30;;;;;;;;;;5077185;28;20205;-82
2022/03/07 11:13:16;;;;;;;1.65;1.55;;;;;;;;;;5076535;28;20212;-82
2022/03/07 11:15:44;;;;;;;1.63;1.52;;;;;;;;;;5076766;28;20585;-82
2022/03/07 11:18:13;;;;;;;1.63;1.52;;;;;;;;;;5076796;28;20705;-83
2022/03/07 11:20:44;;;;;;;1.10;1.10;;;;;;;;;;5076905;28;20212;-82
2022/03/07 11:23:13;;;;;;;1.50;1.40;;;;;;;;;;5077545;28;20235;-82
2022/03/07 11:25:42;;;;;;;2.20;1.35;;;;;;;;;;5077941;28;20579;-83
2022/03/07 11:28:10;;;;;;;1.65;1.55;;;;;;;;;;5077991;28;20244;-83
2022/03/07 11:30:42;;;;;;;1.58;1.48;;;;;;;;;;5077378;28;20212;-82
2022/03/07 11:33:11;;;;;;;1.70;1.45;;;;;;;;;;5076821;28;20256;-81
2022/03/07 11:35:41;;;;;;;1.35;1.30;;;;;;;;;;5076079;28;20221;-82
2022/03/07 11:38:17;;;;;;;1.70;1.60;;;;;;;;;;5076800;28;20224;-82
2022/03/07 11:41:00;;;;;;;1.70;1.60;;;;;;;;;;5076215;28;20201;-83
2022/03/07 11:43:30;;;;;;;1.42;1.38;;;;;;;;;;5075950;28;20201;-81
2022/03/07 11:45:59;;;;;;;1.40;1.30;;;;;;;;;;5077732;28;20672;-83
2022/03/07 11:48:29;;;;;;;1.88;1.70;;;;;;;;;;5076923;28;20611;-83
2022/03/07 11:50:57;;;;;;;1.42;1.40;;;;;;;;;;5077107;28;20205;-83
2022/03/07 11:53:25;;;;;;;1.08;1.00;;;;;;;;;;5075691;28;20204;-83
2022/03/07 11:55:53;;;;;;;1.23;1.17;;;;;;;;;;5076316;28;20278;-81
2022/03/07 11:58:32;;;;;;;1.83;1.17;;;;;;;;;;5076453;28;20220;-82
2022/03/07 12:01:11;;;;;;;2.55;1.88;;;;;;;;;;5056614;28;20579;-81
2022/03/07 12:03:39;;;;;;;1.60;1.50;;;;;;;;;;5055953;28;20217;-82
2022/03/07 12:06:10;;;;;;;2.50;1.30;;;;;;;;;;5056849;28;20661;-83
2022/03/07 12:08:47;;;;;;;1.50;1.40;;;;;;;;;;5057454;28;20568;-82
2022/03/07 12:11:31;;;;;;;1.52;1.42;;;;;;;;;;5056772;28;20205;-83
2022/03/07 12:14:03;;;;;;;1.67;1.58;;;;;;;;;;5057187;28;20201;-83
2022/03/07 12:16:34;;;;;;;1.50;1.40;;;;;;;;;;5056518;28;20221;-84
2022/03/07 12:19:09;;;;;;;1.00;1.00;;;;;;;;;;5056372;28;20565;-83
2022/03/07 12:21:41;;;;;;;1.10;1.10;;;;;;;;;;5056364;28;20205;-83
2022/03/07 12:24:09;;;;;;;1.30;1.20;;;;;;;;;;5056200;28;20210;-83
2022/03/07 12:26:46;;;;;;;1.30;1.20;;;;;;;;;;5056002;28;20202;-82
2022/03/07 12:29:15;;;;;;;1.40;1.30;;;;;;;;;;5060995;28;20668;-83
2022/03/07 12:31:50;;;;;;;1.33;1.23;;;;;;;;;;5075919;28;20215;-82
2022/03/07 12:34:23;;;;;;;1.08;1.08;;;;;;;;;;5075780;28;20200;-83
2022/03/07 12:37:08;;;;;;;1.48;1.30;;;;;;;;;;5075532;28;20235;-82
2022/03/07 12:39:46;;;;;;;1.13;1.13;;;;;;;;;;5076133;28;20262;-82
2022/03/07 12:42:15;;;;;;;1.10;1.10;;;;;;;;;;5076467;28;20673;-82
2022/03/07 12:44:49;;;;;;;1.58;1.48;;;;;;;;;;5076469;28;20205;-82
2022/03/07 12:47:17;;;;;;;1.15;1.08;;;;;;;;;;5076475;28;20209;-83
2022/03/07 12:49:50;;;;;;;1.08;1.08;;;;;;;;;;5074720;28;20309;-82
2022/03/07 12:52:25;;;;;;;1.02;1.02;;;;;;;;;;5075403;28;20193;-82
2022/03/07 12:54:57;;;;;;;1.20;1.20;;;;;;;;;;5073891;28;20769;-82
2022/03/07 12:57:26;;;;;;;1.60;1.50;;;;;;;;;;5073568;28;20205;-80
2022/03/07 13:00:01;;;;;;;1.30;1.23;;;;;;;;;;5073434;28;20201;-80
2022/03/07 13:02:36;;;;;;;1.38;1.30;;;;;;;;;;5074647;28;20673;-83
2022/03/07 13:05:11;;;;;;;1.00;1.00;;;;;;;;;;5074049;28;20657;-81
2022/03/07 13:07:41;;;;;;;1.15;1.13;;;;;;;;;;5075141;28;20362;-81
2022/03/07 13:10:14;;;;;;;2.05;1.50;;;;;;;;;;5075891;28;20213;-82
2022/03/07 13:12:45;;;;;;;2.20;1.70;;;;;;;;;;5076504;28;20200;-82
2022/03/07 13:15:14;;;;;;;2.08;1.98;;;;;;;;;;5076061;28;20291;-82
2022/03/07 13:17:42;;;;;;;1.40;1.30;;;;;;;;;;5075859;28;20735;-82
2022/03/07 13:20:14;;;;;;;1.35;1.17;;;;;;;;;;5074281;28;20573;-82
2022/03/07 13:22:42;;;;;;;1.30;1.20;;;;;;;;;;5074914;28;20215;-82
2022/03/07 13:25:15;;;;;;;1.73;1.63;;;;;;;;;;5073598;28;20258;-80
2022/03/07 13:28:47;;;;;;;1.30;1.30;;;;;;;;;;5096197;22;20236;-81
2022/03/07 13:31:19;;;;;;;1.48;1.38;;;;;;;;;;5019286;28;20226;-82
2022/03/07 13:34:12;;;;;;;1.65;1.15;;;;;;;;;;5034234;28;20288;-81
2022/03/07 13:47:46;;;;;;;1.80;1.70;;;;;;;;;;4952524;28;20220;-81
2022/03/07 13:56:27;;;;;;;1.20;1.17;;;;;;;;;;5013267;28;20218;-81
2022/03/07 13:58:54;;;;;;;2.35;1.83;;;;;;;;;;5017535;28;20236;-82
2022/03/07 14:01:30;;;;;;;1.92;1.65;;;;;;;;;;5033944;28;20194;-81
2022/03/07 14:04:09;;;;;;;1.50;1.40;;;;;;;;;;5033328;28;20206;-81
2022/03/07 14:06:36;;;;;;;1.25;1.25;;;;;;;;;;5033228;28;20346;-81
2022/03/07 14:09:04;;;;;;;1.98;1.20;;;;;;;;;;5033260;28;20214;-81
2022/03/07 14:11:31;;;;;;;1.80;1.70;;;;;;;;;;5032952;28;20207;-81
2022/03/07 14:13:59;;;;;;;2.10;1.92;;;;;;;;;;5032135;28;20212;-80
2022/03/07 14:16:37;;;;;;;1.70;1.60;;;;;;;;;;5034442;28;20607;-80
2022/03/07 14:19:06;;;;;;;1.40;1.30;;;;;;;;;;5040147;28;20249;-79
2022/03/07 14:21:33;;;;;;;1.50;1.40;;;;;;;;;;5039142;28;20213;-79
2022/03/07 14:24:01;;;;;;;1.77;1.67;;;;;;;;;;5039232;28;20210;-80
2022/03/07 14:26:28;;;;;;;1.95;1.63;;;;;;;;;;5039445;28;20202;-80
2022/03/07 14:29:02;;;;;;;1.52;1.42;;;;;;;;;;5039157;28;20296;-80
2022/03/07 14:31:31;;;;;;;1.50;1.40;;;;;;;;;;5039581;28;20752;-80
2022/03/07 14:33:58;;;;;;;1.90;1.63;;;;;;;;;;5037582;28;20194;-77
2022/03/07 14:36:27;;;;;;;1.60;1.50;;;;;;;;;;5038209;28;20222;-77
2022/03/07 14:38:56;;;;;;;2.83;1.60;;;;;;;;;;5037654;28;20218;-78
2022/03/07 14:41:24;;;;;;;1.60;1.50;;;;;;;;;;5038763;28;20584;-79
2022/03/07 14:43:51;;;;;;;2.15;1.52;;;;;;;;;;5037999;28;20198;-78
2022/03/07 14:46:19;;;;;;;1.63;1.52;;;;;;;;;;5038437;28;20194;-78
2022/03/07 14:48:46;;;;;;;1.85;1.58;;;;;;;;;;5038417;28;20646;-79
2022/03/07 14:51:13;;;;;;;2.58;1.52;;;;;;;;;;5037974;28;20209;-78
2022/03/07 14:53:43;;;;;;;1.02;1.02;;;;;;;;;;5038292;28;20194;-77
2022/03/07 14:56:10;;;;;;;1.88;1.30;;;;;;;;;;5038322;28;20194;-79
2022/03/07 14:58:38;;;;;;;1.45;1.35;;;;;;;;;;5038031;28;20210;-80
2022/03/07 15:01:05;;;;;;;1.35;1.25;;;;;;;;;;5039138;28;20199;-81
2022/03/07 15:03:32;;;;;;;1.35;1.25;;;;;;;;;;5038329;28;20194;-81
2022/03/07 15:06:00;;;;;;;1.27;1.17;;;;;;;;;;5039064;28;20195;-81
2022/03/07 15:08:27;;;;;;;1.70;1.25;;;;;;;;;;5040075;28;20221;-80
2022/03/07 15:10:56;;;;;;;1.45;1.35;;;;;;;;;;5039298;28;20209;-80